In Rescue
 
Open Full Screen Window  High Contrast Mode
Wind Gusting 00 knots
12
December 01, 2022 12:45 PM PST
Present Weather: Haze
Weather Information
Wind Direction
  140 °
Wind Speed
  12 kt (14 mph)
Wind Gust
  00 kt (0 mph)
Altimeter
29.85 in
Visibility
6 SM
Temperature
13° C
55° F
Dewpoint
09° C
48° F
Humidity
77%
1hr Rain Fall
00.00 in.
24hr Rain Fall
00.06 in.
Sky Condition
Overcast @ 4,300 ft
Broken @ 2,000 ft
Scattered @ 100 ft
MVFR

METAR KCVH 012045Z AUTO 14012KT 6SM HZ SCT001 BKN020 OVC043 13/09 A2985 RMK A01

FAA Disclaimer: The data displayed is for advisory purposes only and is not to be used for flight planning or operations.